sensor_id;sensor_type;location;lat;lon;timestamp;P1;durP1;ratioP1;P2;durP2;ratioP2
6987;SDS011;3534;49.960;8.018;2023-12-20T00:01:06;7.00;;;2.50;;
6987;SDS011;3534;49.960;8.018;2023-12-20T00:03:32;2.67;;;2.47;;
6987;SDS011;3534;49.960;8.018;2023-12-20T00:05:59;2.13;;;1.97;;
6987;SDS011;3534;49.960;8.018;2023-12-20T00:08:26;2.70;;;2.50;;
6987;SDS011;3534;49.960;8.018;2023-12-20T00:10:53;2.77;;;2.57;;
6987;SDS011;3534;49.960;8.018;2023-12-20T00:13:20;2.10;;;1.90;;
6987;SDS011;3534;49.960;8.018;2023-12-20T00:18:16;2.17;;;2.07;;
6987;SDS011;3534;49.960;8.018;2023-12-20T00:20:43;2.00;;;1.90;;
6987;SDS011;3534;49.960;8.018;2023-12-20T00:23:09;2.20;;;2.00;;
6987;SDS011;3534;49.960;8.018;2023-12-20T00:25:36;2.13;;;1.93;;
6987;SDS011;3534;49.960;8.018;2023-12-20T00:28:04;4.43;;;2.97;;
6987;SDS011;3534;49.960;8.018;2023-12-20T00:30:31;2.17;;;1.90;;
6987;SDS011;3534;49.960;8.018;2023-12-20T00:32:57;2.50;;;2.30;;
6987;SDS011;3534;49.960;8.018;2023-12-20T00:35:24;3.80;;;2.30;;
6987;SDS011;3534;49.960;8.018;2023-12-20T00:37:50;2.20;;;1.67;;
6987;SDS011;3534;49.960;8.018;2023-12-20T00:40:17;2.07;;;1.87;;
6987;SDS011;3534;49.960;8.018;2023-12-20T00:42:44;2.60;;;2.20;;
6987;SDS011;3534;49.960;8.018;2023-12-20T00:45:13;2.27;;;2.07;;
6987;SDS011;3534;49.960;8.018;2023-12-20T00:47:40;2.57;;;2.37;;
6987;SDS011;3534;49.960;8.018;2023-12-20T00:50:07;1.70;;;1.60;;
6987;SDS011;3534;49.960;8.018;2023-12-20T00:52:34;2.83;;;2.20;;
6987;SDS011;3534;49.960;8.018;2023-12-20T00:55:00;3.60;;;1.80;;
6987;SDS011;3534;49.960;8.018;2023-12-20T00:57:27;2.17;;;2.00;;
6987;SDS011;3534;49.960;8.018;2023-12-20T00:59:54;2.10;;;1.80;;
6987;SDS011;3534;49.960;8.018;2023-12-20T01:02:22;2.33;;;1.37;;
6987;SDS011;3534;49.960;8.018;2023-12-20T01:04:49;1.67;;;1.57;;
6987;SDS011;3534;49.960;8.018;2023-12-20T01:07:15;2.00;;;1.80;;
6987;SDS011;3534;49.960;8.018;2023-12-20T01:09:42;3.10;;;1.70;;
6987;SDS011;3534;49.960;8.018;2023-12-20T01:12:08;1.83;;;1.73;;
6987;SDS011;3534;49.960;8.018;2023-12-20T01:14:35;2.20;;;1.40;;
6987;SDS011;3534;49.960;8.018;2023-12-20T01:17:02;1.50;;;1.40;;
6987;SDS011;3534;49.960;8.018;2023-12-20T01:19:30;1.40;;;1.30;;
6987;SDS011;3534;49.960;8.018;2023-12-20T01:21:57;1.70;;;1.60;;
6987;SDS011;3534;49.960;8.018;2023-12-20T01:24:23;1.90;;;1.80;;
6987;SDS011;3534;49.960;8.018;2023-12-20T01:26:50;2.50;;;2.30;;
6987;SDS011;3534;49.960;8.018;2023-12-20T01:29:17;2.47;;;2.20;;
6987;SDS011;3534;49.960;8.018;2023-12-20T01:31:43;2.03;;;1.83;;
6987;SDS011;3534;49.960;8.018;2023-12-20T01:34:10;2.40;;;2.20;;
6987;SDS011;3534;49.960;8.018;2023-12-20T01:36:38;2.27;;;1.97;;
6987;SDS011;3534;49.960;8.018;2023-12-20T01:39:04;1.83;;;1.60;;
6987;SDS011;3534;49.960;8.018;2023-12-20T01:41:31;2.27;;;2.07;;
6987;SDS011;3534;49.960;8.018;2023-12-20T01:43:58;2.27;;;1.40;;
6987;SDS011;3534;49.960;8.018;2023-12-20T01:46:24;1.50;;;1.40;;
6987;SDS011;3534;49.960;8.018;2023-12-20T01:48:52;1.70;;;1.60;;
6987;SDS011;3534;49.960;8.018;2023-12-20T01:51:19;1.60;;;1.50;;
6987;SDS011;3534;49.960;8.018;2023-12-20T01:53:48;1.60;;;1.50;;
6987;SDS011;3534;49.960;8.018;2023-12-20T01:56:15;1.33;;;1.23;;
6987;SDS011;3534;49.960;8.018;2023-12-20T01:58:43;1.37;;;1.27;;
6987;SDS011;3534;49.960;8.018;2023-12-20T02:01:11;1.27;;;1.17;;
6987;SDS011;3534;49.960;8.018;2023-12-20T02:03:38;1.10;;;1.10;;
6987;SDS011;3534;49.960;8.018;2023-12-20T02:06:05;1.30;;;1.17;;
6987;SDS011;3534;49.960;8.018;2023-12-20T02:08:33;1.30;;;1.20;;
6987;SDS011;3534;49.960;8.018;2023-12-20T02:11:01;1.20;;;1.10;;
6987;SDS011;3534;49.960;8.018;2023-12-20T02:13:28;1.40;;;1.30;;
6987;SDS011;3534;49.960;8.018;2023-12-20T02:15:55;2.30;;;1.40;;
6987;SDS011;3534;49.960;8.018;2023-12-20T02:18:21;1.80;;;1.70;;
6987;SDS011;3534;49.960;8.018;2023-12-20T02:20:48;2.03;;;1.90;;
6987;SDS011;3534;49.960;8.018;2023-12-20T02:23:16;3.33;;;1.80;;
6987;SDS011;3534;49.960;8.018;2023-12-20T02:25:43;1.90;;;1.80;;
6987;SDS011;3534;49.960;8.018;2023-12-20T02:28:10;1.43;;;1.33;;
6987;SDS011;3534;49.960;8.018;2023-12-20T02:30:36;2.07;;;1.90;;
6987;SDS011;3534;49.960;8.018;2023-12-20T02:33:03;2.37;;;2.17;;
6987;SDS011;3534;49.960;8.018;2023-12-20T02:35:33;1.70;;;1.60;;
6987;SDS011;3534;49.960;8.018;2023-12-20T02:38:00;1.60;;;1.50;;
6987;SDS011;3534;49.960;8.018;2023-12-20T02:40:28;2.00;;;1.80;;
6987;SDS011;3534;49.960;8.018;2023-12-20T02:42:54;1.90;;;1.80;;
6987;SDS011;3534;49.960;8.018;2023-12-20T02:45:21;4.83;;;1.40;;
6987;SDS011;3534;49.960;8.018;2023-12-20T02:47:48;1.50;;;1.10;;
6987;SDS011;3534;49.960;8.018;2023-12-20T02:50:14;1.43;;;1.20;;
6987;SDS011;3534;49.960;8.018;2023-12-20T02:52:42;1.90;;;0.90;;
6987;SDS011;3534;49.960;8.018;2023-12-20T02:55:10;2.03;;;1.10;;
6987;SDS011;3534;49.960;8.018;2023-12-20T02:57:38;1.83;;;1.20;;
6987;SDS011;3534;49.960;8.018;2023-12-20T03:00:07;1.13;;;1.03;;
6987;SDS011;3534;49.960;8.018;2023-12-20T03:02:34;1.53;;;1.20;;
6987;SDS011;3534;49.960;8.018;2023-12-20T03:05:01;0.90;;;0.90;;
6987;SDS011;3534;49.960;8.018;2023-12-20T03:07:28;1.27;;;1.07;;
6987;SDS011;3534;49.960;8.018;2023-12-20T03:09:54;1.20;;;1.10;;
6987;SDS011;3534;49.960;8.018;2023-12-20T03:12:21;1.67;;;1.40;;
6987;SDS011;3534;49.960;8.018;2023-12-20T03:14:49;2.23;;;1.30;;
6987;SDS011;3534;49.960;8.018;2023-12-20T03:17:16;1.60;;;1.10;;
6987;SDS011;3534;49.960;8.018;2023-12-20T03:19:43;1.00;;;0.87;;
6987;SDS011;3534;49.960;8.018;2023-12-20T03:22:10;0.93;;;0.77;;
6987;SDS011;3534;49.960;8.018;2023-12-20T03:24:37;1.10;;;0.90;;
6987;SDS011;3534;49.960;8.018;2023-12-20T03:27:04;2.17;;;1.50;;
6987;SDS011;3534;49.960;8.018;2023-12-20T03:29:30;1.33;;;1.20;;
6987;SDS011;3534;49.960;8.018;2023-12-20T03:31:58;0.87;;;0.87;;
6987;SDS011;3534;49.960;8.018;2023-12-20T03:34:26;1.10;;;1.10;;
6987;SDS011;3534;49.960;8.018;2023-12-20T03:36:54;1.13;;;1.03;;
6987;SDS011;3534;49.960;8.018;2023-12-20T03:39:20;1.33;;;1.20;;
6987;SDS011;3534;49.960;8.018;2023-12-20T03:41:46;2.57;;;1.30;;
6987;SDS011;3534;49.960;8.018;2023-12-20T03:44:13;1.53;;;1.20;;
6987;SDS011;3534;49.960;8.018;2023-12-20T03:46:39;2.30;;;2.10;;
6987;SDS011;3534;49.960;8.018;2023-12-20T03:49:07;1.50;;;1.40;;
6987;SDS011;3534;49.960;8.018;2023-12-20T03:51:34;1.33;;;1.23;;
6987;SDS011;3534;49.960;8.018;2023-12-20T03:54:01;1.10;;;1.00;;
6987;SDS011;3534;49.960;8.018;2023-12-20T03:56:28;1.03;;;1.00;;
6987;SDS011;3534;49.960;8.018;2023-12-20T03:58:54;1.33;;;1.10;;
6987;SDS011;3534;49.960;8.018;2023-12-20T04:01:21;1.57;;;0.87;;
6987;SDS011;3534;49.960;8.018;2023-12-20T04:03:48;1.57;;;0.97;;
6987;SDS011;3534;49.960;8.018;2023-12-20T04:06:17;1.43;;;0.80;;
6987;SDS011;3534;49.960;8.018;2023-12-20T04:08:44;0.90;;;0.80;;
6987;SDS011;3534;49.960;8.018;2023-12-20T04:11:11;1.00;;;0.90;;
6987;SDS011;3534;49.960;8.018;2023-12-20T04:13:37;1.40;;;1.10;;
6987;SDS011;3534;49.960;8.018;2023-12-20T04:16:04;0.80;;;0.67;;
6987;SDS011;3534;49.960;8.018;2023-12-20T04:18:31;2.50;;;0.80;;
6987;SDS011;3534;49.960;8.018;2023-12-20T04:20:58;2.80;;;1.80;;
6987;SDS011;3534;49.960;8.018;2023-12-20T04:23:26;1.30;;;1.10;;
6987;SDS011;3534;49.960;8.018;2023-12-20T04:25:53;2.93;;;1.30;;
6987;SDS011;3534;49.960;8.018;2023-12-20T04:28:21;1.97;;;1.33;;
6987;SDS011;3534;49.960;8.018;2023-12-20T04:30:48;1.87;;;1.20;;
6987;SDS011;3534;49.960;8.018;2023-12-20T04:33:15;2.03;;;1.23;;
6987;SDS011;3534;49.960;8.018;2023-12-20T04:35:41;1.33;;;1.07;;
6987;SDS011;3534;49.960;8.018;2023-12-20T04:38:10;1.33;;;1.00;;
6987;SDS011;3534;49.960;8.018;2023-12-20T04:40:38;2.00;;;0.87;;
6987;SDS011;3534;49.960;8.018;2023-12-20T04:43:06;2.03;;;1.20;;
6987;SDS011;3534;49.960;8.018;2023-12-20T04:45:32;5.50;;;1.70;;
6987;SDS011;3534;49.960;8.018;2023-12-20T04:47:59;3.00;;;1.10;;
6987;SDS011;3534;49.960;8.018;2023-12-20T04:50:26;1.57;;;1.00;;
6987;SDS011;3534;49.960;8.018;2023-12-20T04:52:53;1.37;;;1.00;;
6987;SDS011;3534;49.960;8.018;2023-12-20T04:55:20;3.83;;;1.13;;
6987;SDS011;3534;49.960;8.018;2023-12-20T04:57:48;1.90;;;1.20;;
6987;SDS011;3534;49.960;8.018;2023-12-20T05:00:15;2.30;;;1.20;;
6987;SDS011;3534;49.960;8.018;2023-12-20T05:02:42;4.57;;;1.33;;
6987;SDS011;3534;49.960;8.018;2023-12-20T05:05:09;3.87;;;1.30;;
6987;SDS011;3534;49.960;8.018;2023-12-20T05:07:36;2.07;;;1.10;;
6987;SDS011;3534;49.960;8.018;2023-12-20T05:10:02;5.50;;;1.50;;
6987;SDS011;3534;49.960;8.018;2023-12-20T05:12:29;6.87;;;1.40;;
6987;SDS011;3534;49.960;8.018;2023-12-20T05:14:58;2.60;;;1.20;;
6987;SDS011;3534;49.960;8.018;2023-12-20T05:17:24;5.87;;;1.50;;
6987;SDS011;3534;49.960;8.018;2023-12-20T05:19:51;6.33;;;0.97;;
6987;SDS011;3534;49.960;8.018;2023-12-20T05:22:18;5.47;;;1.40;;
6987;SDS011;3534;49.960;8.018;2023-12-20T05:24:44;1.83;;;1.30;;
6987;SDS011;3534;49.960;8.018;2023-12-20T05:27:11;9.80;;;2.40;;
6987;SDS011;3534;49.960;8.018;2023-12-20T05:29:38;2.67;;;1.40;;
6987;SDS011;3534;49.960;8.018;2023-12-20T05:32:06;1.73;;;1.30;;
6987;SDS011;3534;49.960;8.018;2023-12-20T05:34:32;7.53;;;1.57;;
6987;SDS011;3534;49.960;8.018;2023-12-20T05:36:59;4.27;;;1.80;;
6987;SDS011;3534;49.960;8.018;2023-12-20T05:39:26;3.80;;;1.13;;
6987;SDS011;3534;49.960;8.018;2023-12-20T05:41:53;5.80;;;1.50;;
6987;SDS011;3534;49.960;8.018;2023-12-20T05:44:20;4.13;;;1.40;;
6987;SDS011;3534;49.960;8.018;2023-12-20T05:46:46;5.97;;;1.70;;
6987;SDS011;3534;49.960;8.018;2023-12-20T05:49:14;6.13;;;1.00;;
6987;SDS011;3534;49.960;8.018;2023-12-20T05:51:41;4.17;;;1.03;;
6987;SDS011;3534;49.960;8.018;2023-12-20T05:54:08;10.20;;;1.97;;
6987;SDS011;3534;49.960;8.018;2023-12-20T05:56:35;7.87;;;2.77;;
6987;SDS011;3534;49.960;8.018;2023-12-20T05:59:02;9.07;;;1.93;;
6987;SDS011;3534;49.960;8.018;2023-12-20T06:01:28;2.97;;;1.43;;
6987;SDS011;3534;49.960;8.018;2023-12-20T06:03:55;7.47;;;1.37;;
6987;SDS011;3534;49.960;8.018;2023-12-20T06:06:23;7.67;;;1.23;;
6987;SDS011;3534;49.960;8.018;2023-12-20T06:08:50;1.50;;;1.40;;
6987;SDS011;3534;49.960;8.018;2023-12-20T06:11:16;9.97;;;1.90;;
6987;SDS011;3534;49.960;8.018;2023-12-20T06:13:42;6.67;;;1.93;;
6987;SDS011;3534;49.960;8.018;2023-12-20T06:16:09;8.73;;;1.50;;
6987;SDS011;3534;49.960;8.018;2023-12-20T06:18:35;6.10;;;1.40;;
6987;SDS011;3534;49.960;8.018;2023-12-20T06:21:03;2.60;;;1.00;;
6987;SDS011;3534;49.960;8.018;2023-12-20T06:23:31;3.67;;;1.83;;
6987;SDS011;3534;49.960;8.018;2023-12-20T06:25:58;3.20;;;1.70;;
6987;SDS011;3534;49.960;8.018;2023-12-20T06:28:24;4.50;;;1.70;;
6987;SDS011;3534;49.960;8.018;2023-12-20T06:30:51;5.53;;;1.90;;
6987;SDS011;3534;49.960;8.018;2023-12-20T06:33:19;5.83;;;1.37;;
6987;SDS011;3534;49.960;8.018;2023-12-20T06:35:47;4.57;;;1.30;;
6987;SDS011;3534;49.960;8.018;2023-12-20T06:38:13;5.63;;;1.73;;
6987;SDS011;3534;49.960;8.018;2023-12-20T06:40:41;7.43;;;1.97;;
6987;SDS011;3534;49.960;8.018;2023-12-20T06:43:08;3.70;;;2.00;;
6987;SDS011;3534;49.960;8.018;2023-12-20T06:45:34;4.60;;;2.00;;
6987;SDS011;3534;49.960;8.018;2023-12-20T06:48:01;3.40;;;1.80;;
6987;SDS011;3534;49.960;8.018;2023-12-20T06:50:28;16.97;;;5.90;;
6987;SDS011;3534;49.960;8.018;2023-12-20T06:52:54;23.20;;;5.33;;
6987;SDS011;3534;49.960;8.018;2023-12-20T06:55:21;9.47;;;5.03;;
6987;SDS011;3534;49.960;8.018;2023-12-20T06:57:49;10.20;;;3.73;;
6987;SDS011;3534;49.960;8.018;2023-12-20T07:00:16;9.43;;;2.90;;
6987;SDS011;3534;49.960;8.018;2023-12-20T07:02:45;4.23;;;2.20;;
6987;SDS011;3534;49.960;8.018;2023-12-20T07:05:12;8.17;;;2.73;;
6987;SDS011;3534;49.960;8.018;2023-12-20T07:07:42;15.40;;;4.80;;
6987;SDS011;3534;49.960;8.018;2023-12-20T07:10:08;12.77;;;3.23;;
6987;SDS011;3534;49.960;8.018;2023-12-20T07:12:35;10.83;;;2.60;;
6987;SDS011;3534;49.960;8.018;2023-12-20T07:15:04;11.70;;;2.40;;
6987;SDS011;3534;49.960;8.018;2023-12-20T07:17:32;3.87;;;1.60;;
6987;SDS011;3534;49.960;8.018;2023-12-20T07:19:59;4.30;;;1.93;;
6987;SDS011;3534;49.960;8.018;2023-12-20T07:22:28;6.10;;;1.80;;
6987;SDS011;3534;49.960;8.018;2023-12-20T07:24:56;7.50;;;2.30;;
6987;SDS011;3534;49.960;8.018;2023-12-20T07:27:23;7.30;;;2.00;;
6987;SDS011;3534;49.960;8.018;2023-12-20T07:29:50;7.90;;;2.23;;
6987;SDS011;3534;49.960;8.018;2023-12-20T07:32:18;5.77;;;2.20;;
6987;SDS011;3534;49.960;8.018;2023-12-20T07:34:44;4.30;;;1.80;;
6987;SDS011;3534;49.960;8.018;2023-12-20T07:37:11;6.57;;;1.70;;
6987;SDS011;3534;49.960;8.018;2023-12-20T07:39:38;3.33;;;1.30;;
6987;SDS011;3534;49.960;8.018;2023-12-20T07:42:06;4.80;;;1.67;;
6987;SDS011;3534;49.960;8.018;2023-12-20T07:44:32;4.27;;;2.10;;
6987;SDS011;3534;49.960;8.018;2023-12-20T07:47:00;7.90;;;1.77;;
6987;SDS011;3534;49.960;8.018;2023-12-20T07:49:28;30.03;;;10.80;;
6987;SDS011;3534;49.960;8.018;2023-12-20T07:51:56;23.97;;;8.10;;
6987;SDS011;3534;49.960;8.018;2023-12-20T07:54:22;13.73;;;5.10;;
6987;SDS011;3534;49.960;8.018;2023-12-20T07:56:49;27.00;;;6.67;;
6987;SDS011;3534;49.960;8.018;2023-12-20T07:59:16;14.20;;;4.53;;
6987;SDS011;3534;49.960;8.018;2023-12-20T08:01:42;6.43;;;2.93;;
6987;SDS011;3534;49.960;8.018;2023-12-20T08:04:09;24.27;;;5.67;;
6987;SDS011;3534;49.960;8.018;2023-12-20T08:06:38;19.57;;;5.80;;
6987;SDS011;3534;49.960;8.018;2023-12-20T08:09:04;11.93;;;3.23;;
6987;SDS011;3534;49.960;8.018;2023-12-20T08:11:31;12.87;;;2.17;;
6987;SDS011;3534;49.960;8.018;2023-12-20T08:13:58;6.87;;;1.90;;
6987;SDS011;3534;49.960;8.018;2023-12-20T08:16:25;7.67;;;2.77;;
6987;SDS011;3534;49.960;8.018;2023-12-20T08:18:52;4.43;;;1.70;;
6987;SDS011;3534;49.960;8.018;2023-12-20T08:21:19;8.53;;;1.90;;
6987;SDS011;3534;49.960;8.018;2023-12-20T08:23:48;23.73;;;1.80;;
6987;SDS011;3534;49.960;8.018;2023-12-20T08:26:18;7.57;;;1.90;;
6987;SDS011;3534;49.960;8.018;2023-12-20T08:28:46;4.00;;;1.87;;
6987;SDS011;3534;49.960;8.018;2023-12-20T08:31:13;2.63;;;1.73;;
6987;SDS011;3534;49.960;8.018;2023-12-20T08:33:41;4.47;;;1.70;;
6987;SDS011;3534;49.960;8.018;2023-12-20T08:36:08;3.17;;;1.90;;
6987;SDS011;3534;49.960;8.018;2023-12-20T08:38:34;7.60;;;2.80;;
6987;SDS011;3534;49.960;8.018;2023-12-20T08:41:03;9.03;;;1.80;;
6987;SDS011;3534;49.960;8.018;2023-12-20T08:43:30;3.83;;;1.67;;
6987;SDS011;3534;49.960;8.018;2023-12-20T08:45:57;7.50;;;1.50;;
6987;SDS011;3534;49.960;8.018;2023-12-20T08:48:24;5.67;;;2.00;;
6987;SDS011;3534;49.960;8.018;2023-12-20T08:50:50;2.40;;;1.80;;
6987;SDS011;3534;49.960;8.018;2023-12-20T08:53:17;5.00;;;2.30;;
6987;SDS011;3534;49.960;8.018;2023-12-20T08:55:44;6.07;;;2.40;;
6987;SDS011;3534;49.960;8.018;2023-12-20T08:58:14;8.57;;;2.37;;
6987;SDS011;3534;49.960;8.018;2023-12-20T09:00:41;6.07;;;1.93;;
6987;SDS011;3534;49.960;8.018;2023-12-20T09:03:08;10.43;;;2.03;;
6987;SDS011;3534;49.960;8.018;2023-12-20T09:05:35;7.23;;;1.83;;
6987;SDS011;3534;49.960;8.018;2023-12-20T09:08:01;8.40;;;1.83;;
6987;SDS011;3534;49.960;8.018;2023-12-20T09:10:28;5.40;;;1.97;;
6987;SDS011;3534;49.960;8.018;2023-12-20T09:12:55;7.70;;;2.00;;
6987;SDS011;3534;49.960;8.018;2023-12-20T09:15:24;6.63;;;1.73;;
6987;SDS011;3534;49.960;8.018;2023-12-20T09:17:51;7.30;;;2.43;;
6987;SDS011;3534;49.960;8.018;2023-12-20T09:20:19;7.20;;;2.07;;
6987;SDS011;3534;49.960;8.018;2023-12-20T09:22:46;11.33;;;2.80;;
6987;SDS011;3534;49.960;8.018;2023-12-20T09:25:12;7.57;;;3.47;;
6987;SDS011;3534;49.960;8.018;2023-12-20T09:27:40;8.47;;;2.60;;
6987;SDS011;3534;49.960;8.018;2023-12-20T09:30:07;18.07;;;3.20;;
6987;SDS011;3534;49.960;8.018;2023-12-20T09:32:36;6.00;;;2.13;;
6987;SDS011;3534;49.960;8.018;2023-12-20T09:35:03;10.33;;;3.27;;
6987;SDS011;3534;49.960;8.018;2023-12-20T09:37:31;7.33;;;2.40;;
6987;SDS011;3534;49.960;8.018;2023-12-20T09:39:58;4.90;;;2.23;;
6987;SDS011;3534;49.960;8.018;2023-12-20T09:42:29;4.63;;;1.80;;
6987;SDS011;3534;49.960;8.018;2023-12-20T09:45:04;4.60;;;2.00;;
6987;SDS011;3534;49.960;8.018;2023-12-20T09:47:36;9.33;;;2.43;;
6987;SDS011;3534;49.960;8.018;2023-12-20T09:50:03;6.87;;;1.90;;
6987;SDS011;3534;49.960;8.018;2023-12-20T09:52:31;6.10;;;1.90;;
6987;SDS011;3534;49.960;8.018;2023-12-20T09:55:00;4.57;;;1.57;;
6987;SDS011;3534;49.960;8.018;2023-12-20T09:57:30;5.43;;;1.83;;
6987;SDS011;3534;49.960;8.018;2023-12-20T09:59:57;3.47;;;1.43;;
6987;SDS011;3534;49.960;8.018;2023-12-20T10:02:24;8.00;;;3.10;;
6987;SDS011;3534;49.960;8.018;2023-12-20T10:04:53;5.07;;;1.90;;
6987;SDS011;3534;49.960;8.018;2023-12-20T10:07:20;10.70;;;1.73;;
6987;SDS011;3534;49.960;8.018;2023-12-20T10:09:47;5.23;;;2.47;;
6987;SDS011;3534;49.960;8.018;2023-12-20T10:12:17;9.17;;;2.20;;
6987;SDS011;3534;49.960;8.018;2023-12-20T10:14:43;6.43;;;2.03;;
6987;SDS011;3534;49.960;8.018;2023-12-20T10:17:10;8.50;;;2.80;;
6987;SDS011;3534;49.960;8.018;2023-12-20T10:19:37;6.33;;;1.87;;
6987;SDS011;3534;49.960;8.018;2023-12-20T10:22:05;6.07;;;2.10;;
6987;SDS011;3534;49.960;8.018;2023-12-20T10:24:32;4.57;;;2.30;;
6987;SDS011;3534;49.960;8.018;2023-12-20T10:27:02;7.70;;;2.37;;
6987;SDS011;3534;49.960;8.018;2023-12-20T10:29:31;6.60;;;2.63;;
6987;SDS011;3534;49.960;8.018;2023-12-20T10:31:59;11.50;;;2.63;;
6987;SDS011;3534;49.960;8.018;2023-12-20T10:34:26;8.07;;;2.30;;
6987;SDS011;3534;49.960;8.018;2023-12-20T10:36:53;7.57;;;1.93;;
6987;SDS011;3534;49.960;8.018;2023-12-20T10:39:21;6.93;;;2.20;;
6987;SDS011;3534;49.960;8.018;2023-12-20T10:41:49;5.13;;;1.77;;
6987;SDS011;3534;49.960;8.018;2023-12-20T10:44:17;5.67;;;2.03;;
6987;SDS011;3534;49.960;8.018;2023-12-20T10:46:44;9.00;;;2.10;;
6987;SDS011;3534;49.960;8.018;2023-12-20T10:49:16;4.20;;;2.00;;
6987;SDS011;3534;49.960;8.018;2023-12-20T10:51:45;5.50;;;2.90;;
6987;SDS011;3534;49.960;8.018;2023-12-20T10:54:13;6.60;;;2.20;;
6987;SDS011;3534;49.960;8.018;2023-12-20T10:56:42;3.87;;;1.47;;
6987;SDS011;3534;49.960;8.018;2023-12-20T10:59:10;14.80;;;3.40;;
6987;SDS011;3534;49.960;8.018;2023-12-20T11:01:38;8.10;;;2.90;;
6987;SDS011;3534;49.960;8.018;2023-12-20T11:04:08;7.13;;;2.10;;
6987;SDS011;3534;49.960;8.018;2023-12-20T11:06:41;6.90;;;1.90;;
6987;SDS011;3534;49.960;8.018;2023-12-20T11:09:16;6.57;;;2.27;;
6987;SDS011;3534;49.960;8.018;2023-12-20T11:14:39;4.80;;;2.20;;
6987;SDS011;3534;49.960;8.018;2023-12-20T11:17:09;6.77;;;1.80;;
6987;SDS011;3534;49.960;8.018;2023-12-20T11:19:42;4.60;;;2.47;;
6987;SDS011;3534;49.960;8.018;2023-12-20T11:22:27;4.63;;;2.07;;
6987;SDS011;3534;49.960;8.018;2023-12-20T11:24:58;5.13;;;2.10;;
6987;SDS011;3534;49.960;8.018;2023-12-20T11:27:29;5.17;;;2.10;;
6987;SDS011;3534;49.960;8.018;2023-12-20T11:29:58;8.20;;;2.10;;
6987;SDS011;3534;49.960;8.018;2023-12-20T11:32:29;10.23;;;2.13;;
6987;SDS011;3534;49.960;8.018;2023-12-20T11:34:56;6.67;;;2.40;;
6987;SDS011;3534;49.960;8.018;2023-12-20T11:37:28;6.53;;;2.60;;
6987;SDS011;3534;49.960;8.018;2023-12-20T11:39:56;6.63;;;2.60;;
6987;SDS011;3534;49.960;8.018;2023-12-20T11:42:26;4.10;;;1.97;;
6987;SDS011;3534;49.960;8.018;2023-12-20T11:44:55;13.37;;;3.47;;
6987;SDS011;3534;49.960;8.018;2023-12-20T11:47:22;12.13;;;2.87;;
6987;SDS011;3534;49.960;8.018;2023-12-20T11:49:49;5.37;;;2.83;;
6987;SDS011;3534;49.960;8.018;2023-12-20T11:52:16;4.57;;;2.67;;
6987;SDS011;3534;49.960;8.018;2023-12-20T11:54:43;10.97;;;2.77;;
6987;SDS011;3534;49.960;8.018;2023-12-20T11:57:09;5.67;;;2.40;;
6987;SDS011;3534;49.960;8.018;2023-12-20T11:59:36;6.00;;;2.53;;
6987;SDS011;3534;49.960;8.018;2023-12-20T12:02:05;5.23;;;2.70;;
6987;SDS011;3534;49.960;8.018;2023-12-20T12:04:32;7.43;;;2.43;;
6987;SDS011;3534;49.960;8.018;2023-12-20T12:06:58;11.10;;;2.47;;
6987;SDS011;3534;49.960;8.018;2023-12-20T12:09:25;3.77;;;1.90;;
6987;SDS011;3534;49.960;8.018;2023-12-20T12:11:52;6.90;;;1.60;;
6987;SDS011;3534;49.960;8.018;2023-12-20T12:14:19;6.60;;;1.87;;
6987;SDS011;3534;49.960;8.018;2023-12-20T12:16:45;4.00;;;2.07;;
6987;SDS011;3534;49.960;8.018;2023-12-20T12:19:21;6.40;;;2.10;;
6987;SDS011;3534;49.960;8.018;2023-12-20T12:21:48;5.20;;;2.03;;
6987;SDS011;3534;49.960;8.018;2023-12-20T12:24:15;5.73;;;2.30;;
6987;SDS011;3534;49.960;8.018;2023-12-20T12:26:49;9.77;;;2.50;;
6987;SDS011;3534;49.960;8.018;2023-12-20T12:29:16;3.10;;;2.17;;
6987;SDS011;3534;49.960;8.018;2023-12-20T12:31:43;5.60;;;2.10;;
6987;SDS011;3534;49.960;8.018;2023-12-20T12:34:09;8.43;;;2.53;;
6987;SDS011;3534;49.960;8.018;2023-12-20T12:36:38;3.27;;;2.03;;
6987;SDS011;3534;49.960;8.018;2023-12-20T12:39:06;4.90;;;2.13;;
6987;SDS011;3534;49.960;8.018;2023-12-20T12:41:33;4.50;;;2.37;;
6987;SDS011;3534;49.960;8.018;2023-12-20T12:44:00;5.40;;;1.90;;
6987;SDS011;3534;49.960;8.018;2023-12-20T12:46:27;6.37;;;2.33;;
6987;SDS011;3534;49.960;8.018;2023-12-20T12:48:54;8.60;;;2.90;;
6987;SDS011;3534;49.960;8.018;2023-12-20T12:51:20;8.73;;;2.60;;
6987;SDS011;3534;49.960;8.018;2023-12-20T12:53:48;5.30;;;1.77;;
6987;SDS011;3534;49.960;8.018;2023-12-20T12:56:15;10.23;;;2.43;;
6987;SDS011;3534;49.960;8.018;2023-12-20T12:58:42;6.80;;;2.00;;
6987;SDS011;3534;49.960;8.018;2023-12-20T13:01:09;9.87;;;2.70;;
6987;SDS011;3534;49.960;8.018;2023-12-20T13:03:36;7.80;;;2.60;;
6987;SDS011;3534;49.960;8.018;2023-12-20T13:06:03;5.77;;;2.60;;
6987;SDS011;3534;49.960;8.018;2023-12-20T13:08:31;11.70;;;2.90;;
6987;SDS011;3534;49.960;8.018;2023-12-20T13:11:00;5.70;;;2.30;;
6987;SDS011;3534;49.960;8.018;2023-12-20T13:13:29;5.50;;;1.60;;
6987;SDS011;3534;49.960;8.018;2023-12-20T13:15:55;5.47;;;1.30;;
6987;SDS011;3534;49.960;8.018;2023-12-20T13:18:22;4.00;;;1.47;;
6987;SDS011;3534;49.960;8.018;2023-12-20T13:20:49;9.87;;;2.20;;
6987;SDS011;3534;49.960;8.018;2023-12-20T13:23:16;6.73;;;1.73;;
6987;SDS011;3534;49.960;8.018;2023-12-20T13:25:44;3.60;;;1.40;;
6987;SDS011;3534;49.960;8.018;2023-12-20T13:28:13;5.07;;;1.87;;
6987;SDS011;3534;49.960;8.018;2023-12-20T13:30:40;5.33;;;1.40;;
6987;SDS011;3534;49.960;8.018;2023-12-20T13:33:06;5.60;;;2.20;;
6987;SDS011;3534;49.960;8.018;2023-12-20T13:35:33;5.70;;;1.80;;
6987;SDS011;3534;49.960;8.018;2023-12-20T13:38:00;4.23;;;1.43;;
6987;SDS011;3534;49.960;8.018;2023-12-20T13:40:27;5.30;;;2.00;;
6987;SDS011;3534;49.960;8.018;2023-12-20T13:42:54;2.80;;;1.40;;
6987;SDS011;3534;49.960;8.018;2023-12-20T13:45:22;5.63;;;1.33;;
6987;SDS011;3534;49.960;8.018;2023-12-20T13:47:50;4.60;;;1.70;;
6987;SDS011;3534;49.960;8.018;2023-12-20T13:50:17;2.93;;;0.97;;
6987;SDS011;3534;49.960;8.018;2023-12-20T13:52:43;5.50;;;1.40;;
6987;SDS011;3534;49.960;8.018;2023-12-20T13:55:11;4.57;;;1.37;;
6987;SDS011;3534;49.960;8.018;2023-12-20T13:57:38;3.17;;;1.27;;
6987;SDS011;3534;49.960;8.018;2023-12-20T14:00:06;5.37;;;1.80;;
6987;SDS011;3534;49.960;8.018;2023-12-20T14:02:40;4.33;;;1.90;;
6987;SDS011;3534;49.960;8.018;2023-12-20T14:05:08;2.50;;;1.53;;
6987;SDS011;3534;49.960;8.018;2023-12-20T14:07:35;3.63;;;1.80;;
6987;SDS011;3534;49.960;8.018;2023-12-20T14:10:01;9.60;;;2.60;;
6987;SDS011;3534;49.960;8.018;2023-12-20T14:12:29;5.13;;;2.30;;
6987;SDS011;3534;49.960;8.018;2023-12-20T14:14:57;6.50;;;2.17;;
6987;SDS011;3534;49.960;8.018;2023-12-20T14:17:24;6.90;;;2.63;;
6987;SDS011;3534;49.960;8.018;2023-12-20T14:19:52;5.90;;;2.57;;
6987;SDS011;3534;49.960;8.018;2023-12-20T14:22:19;5.90;;;2.67;;
6987;SDS011;3534;49.960;8.018;2023-12-20T14:24:46;3.70;;;1.87;;
6987;SDS011;3534;49.960;8.018;2023-12-20T14:27:13;3.30;;;1.63;;
6987;SDS011;3534;49.960;8.018;2023-12-20T14:29:40;5.50;;;1.90;;
6987;SDS011;3534;49.960;8.018;2023-12-20T14:32:07;5.87;;;1.50;;
6987;SDS011;3534;49.960;8.018;2023-12-20T14:34:33;2.30;;;1.60;;
6987;SDS011;3534;49.960;8.018;2023-12-20T14:37:03;7.33;;;3.73;;
6987;SDS011;3534;49.960;8.018;2023-12-20T14:39:30;8.50;;;2.97;;
6987;SDS011;3534;49.960;8.018;2023-12-20T14:41:56;7.30;;;2.93;;
6987;SDS011;3534;49.960;8.018;2023-12-20T14:44:23;5.67;;;2.20;;
6987;SDS011;3534;49.960;8.018;2023-12-20T14:46:50;5.90;;;2.33;;
6987;SDS011;3534;49.960;8.018;2023-12-20T14:49:17;11.43;;;4.93;;
6987;SDS011;3534;49.960;8.018;2023-12-20T14:51:43;11.40;;;2.70;;
6987;SDS011;3534;49.960;8.018;2023-12-20T14:54:14;9.70;;;3.30;;
6987;SDS011;3534;49.960;8.018;2023-12-20T14:56:40;7.20;;;2.57;;
6987;SDS011;3534;49.960;8.018;2023-12-20T14:59:07;8.80;;;2.90;;
6987;SDS011;3534;49.960;8.018;2023-12-20T15:01:34;6.53;;;3.20;;
6987;SDS011;3534;49.960;8.018;2023-12-20T15:04:01;5.80;;;1.77;;
6987;SDS011;3534;49.960;8.018;2023-12-20T15:06:29;5.90;;;2.20;;
6987;SDS011;3534;49.960;8.018;2023-12-20T15:08:56;5.17;;;2.63;;
6987;SDS011;3534;49.960;8.018;2023-12-20T15:11:25;5.50;;;2.40;;
6987;SDS011;3534;49.960;8.018;2023-12-20T15:13:52;5.93;;;2.10;;
6987;SDS011;3534;49.960;8.018;2023-12-20T15:16:21;7.33;;;2.93;;
6987;SDS011;3534;49.960;8.018;2023-12-20T15:18:48;8.07;;;2.87;;
6987;SDS011;3534;49.960;8.018;2023-12-20T15:21:15;5.53;;;2.47;;